Aérodrome :
LOGIN :

S'inscrire | Disclaimer

   EN    FR    IT 

 










Légende :    VFR   VFR Marginal   IFR   IFR Intensif   IFR Très Intensif
Visi : 
Plafond : 
>= 8 km
>= 3000ft
5 à 8 km
1000 à 3000 ft
1500m à 5 km
500 à 1000 ft
800 à 1500m
200 à 500 ft
< 800m
< 200 ft
Symboles :   Orages  Brouillard  Fortes neiges  Fortes précipitations  Vent > 20 kt
SIGMETs :   Divers  Orages  Givrage  Turbulence  Onde Orograph.  Cendres Volcan.







- Altitude de l'aérodrome : 40 ft
- Code IATA : RMI


LIPR - Federico Fellini Int. Rimini

DERNIER METAR :
  • 241415Z 08012KT CAVOK 24/12 Q1016

METARs EXPIRÉS :
  • 241345Z 08013KT CAVOK 25/11 Q1016
  • 241315Z 08012KT CAVOK 25/11 Q1017
  • 241245Z 08012KT CAVOK 24/11 Q1017
  • 241215Z 07012KT CAVOK 24/13 Q1017
  • 241145Z 07011KT CAVOK 24/14 Q1017

TAF TAF LIPR
Valide du 24 à 15h jusqu'au 25 à 00h UTC


241400Z 2415/2424 09010KT 9999 FEW030
Pas de NOTAMs connus pour ce terrain.
1 SIGMET publié pour la FIR Milano (LIMM) :
 
Orages fréquents
LIMM SIGMET 1 VALID 241330/241630 LIIP
LIMM MILANO FIR FRQ TS OBS WI N4550 E00704 - N4439 E00648 - N4359 E00726 - N4431 E00853 - N4550 E00704 TOP ABV FL310 STNR NC=



MET'MAP, la Météo Aéronautique d'un coup d'oeil ! - Copyright ORBIFLY Décembre 2007 - Disclaimer

ORBIFLY MET'MAP TEAM :

Programmation & Développement : Alexandra Zaïnal
Conception & Développement : Baudouin d'Aumeries
Co-Programmation & Développement : Marc-Olivier Méhu
Soutien technique & logistique : Manuel Goepfert

Contact : metmap@orbifly.com




SOURCES & CREDITS :

   NOAA